createdAt,value
2018-10-09T00:01:12.713Z,23.18
2018-10-09T00:03:40.179Z,22.80
2018-10-09T00:06:07.669Z,26.37
2018-10-09T00:08:35.195Z,24.12
2018-10-09T00:11:02.674Z,22.40
2018-10-09T00:13:30.120Z,27.50
2018-10-09T00:15:57.583Z,23.55
2018-10-09T00:18:25.050Z,24.00
2018-10-09T00:20:52.532Z,22.25
2018-10-09T00:23:19.984Z,24.47
2018-10-09T00:25:47.454Z,24.72
2018-10-09T00:28:14.916Z,24.57
2018-10-09T00:30:42.399Z,21.05
2018-10-09T00:33:09.904Z,26.77
2018-10-09T00:35:37.364Z,21.85
2018-10-09T00:38:05.082Z,26.15
2018-10-09T00:40:32.627Z,24.55
2018-10-09T00:43:00.105Z,25.77
2018-10-09T00:45:27.585Z,21.77
2018-10-09T00:47:55.088Z,25.15
2018-10-09T00:50:22.585Z,21.68
2018-10-09T00:52:50.137Z,24.57
2018-10-09T00:55:17.649Z,24.15
2018-10-09T00:57:45.171Z,23.18
2018-10-09T01:00:12.682Z,27.07
2018-10-09T01:02:40.159Z,26.17
2018-10-09T01:05:07.702Z,24.23
2018-10-09T01:07:35.171Z,28.73
2018-10-09T01:10:02.696Z,26.73
2018-10-09T01:12:30.155Z,25.65
2018-10-09T01:14:57.662Z,28.50
2018-10-09T01:17:25.164Z,24.70
2018-10-09T01:19:52.650Z,29.10
2018-10-09T01:22:20.146Z,28.42
2018-10-09T01:24:47.598Z,26.55
2018-10-09T01:27:15.089Z,27.20
2018-10-09T01:29:42.562Z,24.98
2018-10-09T01:32:10.043Z,29.30
2018-10-09T01:34:37.518Z,23.60
2018-10-09T01:37:05.132Z,26.12
2018-10-09T01:39:32.614Z,24.92
2018-10-09T01:42:00.308Z,23.95
2018-10-09T01:44:27.771Z,27.17
2018-10-09T01:46:55.259Z,25.62
2018-10-09T01:49:22.735Z,25.88
2018-10-09T01:51:50.177Z,24.43
2018-10-09T01:54:17.644Z,24.30
2018-10-09T01:56:45.106Z,26.25
2018-10-09T01:59:12.584Z,24.95
2018-10-09T02:01:40.063Z,23.95
2018-10-09T02:04:07.593Z,25.65
2018-10-09T02:06:35.127Z,23.80
2018-10-09T02:09:03.041Z,22.35
2018-10-09T02:11:30.516Z,24.72
2018-10-09T02:13:58.000Z,23.77
2018-10-09T02:16:25.519Z,23.65
2018-10-09T02:18:52.991Z,23.47
2018-10-09T02:21:20.480Z,24.35
2018-10-09T02:23:47.975Z,21.20
2018-10-09T02:26:15.659Z,24.18
2018-10-09T02:28:43.125Z,21.05
2018-10-09T02:31:10.622Z,25.02
2018-10-09T02:33:38.165Z,20.00
2018-10-09T02:36:05.732Z,26.15
2018-10-09T02:38:33.216Z,23.25
2018-10-09T02:41:00.736Z,24.95
2018-10-09T02:43:28.226Z,24.65
2018-10-09T02:45:55.675Z,24.35
2018-10-09T02:48:23.142Z,25.05
2018-10-09T02:50:50.595Z,24.98
2018-10-09T02:53:18.037Z,23.05
2018-10-09T02:55:45.491Z,20.90
2018-10-09T02:58:12.991Z,22.35
2018-10-09T03:00:40.475Z,24.23
2018-10-09T03:03:07.950Z,21.97
2018-10-09T03:05:35.453Z,22.90
2018-10-09T03:08:02.946Z,24.95
2018-10-09T03:10:30.492Z,22.02
2018-10-09T03:12:57.971Z,21.62
2018-10-09T03:15:25.438Z,24.20
2018-10-09T03:17:52.923Z,25.88
2018-10-09T03:20:20.411Z,23.25
2018-10-09T03:22:47.904Z,23.35
2018-10-09T03:25:15.347Z,24.52
2018-10-09T03:27:42.813Z,19.10
2018-10-09T03:30:11.166Z,21.45
2018-10-09T03:32:38.666Z,22.37
2018-10-09T03:35:06.432Z,25.30
2018-10-09T03:37:33.889Z,25.32
2018-10-09T03:40:01.386Z,22.45
2018-10-09T03:42:28.926Z,24.63
2018-10-09T03:44:56.382Z,24.45
2018-10-09T03:47:23.897Z,24.23
2018-10-09T03:49:51.382Z,23.38
2018-10-09T03:52:18.861Z,25.23
2018-10-09T03:54:46.349Z,21.70
2018-10-09T03:57:14.012Z,22.07
2018-10-09T03:59:41.516Z,23.65
2018-10-09T04:02:08.963Z,24.40
2018-10-09T04:04:36.698Z,22.35
2018-10-09T04:07:04.210Z,22.30
2018-10-09T04:09:31.719Z,20.55
2018-10-09T04:11:59.186Z,25.95
2018-10-09T04:14:26.749Z,20.80
2018-10-09T04:16:54.237Z,23.20
2018-10-09T04:19:21.832Z,20.10
2018-10-09T04:21:49.300Z,21.35
2018-10-09T04:24:16.798Z,23.62
2018-10-09T04:26:44.312Z,20.72
2018-10-09T04:29:11.791Z,24.63
2018-10-09T04:31:39.319Z,21.10
2018-10-09T04:34:07.397Z,23.47
2018-10-09T04:36:34.907Z,21.62
2018-10-09T04:39:02.494Z,23.60
2018-10-09T04:41:29.971Z,25.05
2018-10-09T04:43:57.433Z,25.12
2018-10-09T04:46:24.930Z,20.85
2018-10-09T04:48:52.502Z,19.48
2018-10-09T04:51:20.022Z,18.55
2018-10-09T04:53:47.517Z,22.80
2018-10-09T04:56:15.043Z,21.77
2018-10-09T04:58:42.530Z,21.25
2018-10-09T05:01:10.146Z,20.72
2018-10-09T05:03:37.680Z,24.50
2018-10-09T05:06:05.181Z,19.35
2018-10-09T05:08:32.620Z,20.50
2018-10-09T05:11:00.175Z,18.77
2018-10-09T05:13:27.638Z,21.12
2018-10-09T05:15:55.161Z,18.73
2018-10-09T05:18:22.700Z,19.12
2018-10-09T05:20:50.205Z,23.12
2018-10-09T05:23:17.814Z,21.97
2018-10-09T05:25:45.245Z,25.50
2018-10-09T05:28:12.756Z,23.02
2018-10-09T05:30:40.272Z,18.25
2018-10-09T05:33:07.791Z,23.57
2018-10-09T05:35:35.279Z,20.62
2018-10-09T05:38:02.777Z,28.42
2018-10-09T05:40:30.273Z,34.80
2018-10-09T05:42:57.801Z,32.50
2018-10-09T05:45:25.324Z,30.27
2018-10-09T05:47:52.864Z,26.90
2018-10-09T05:50:20.434Z,25.43
2018-10-09T05:52:47.946Z,23.83
2018-10-09T05:55:15.425Z,37.90
2018-10-09T05:57:42.924Z,55.45
2018-10-09T06:00:10.714Z,40.83
2018-10-09T06:02:38.384Z,37.30
2018-10-09T06:05:05.915Z,28.38
2018-10-09T06:07:33.430Z,25.77
2018-10-09T06:10:00.894Z,34.70
2018-10-09T06:12:28.415Z,30.70
2018-10-09T06:14:55.896Z,30.40
2018-10-09T06:17:23.449Z,34.25
2018-10-09T06:19:51.123Z,28.87
2018-10-09T06:22:18.711Z,26.42
2018-10-09T06:24:46.108Z,27.93
2018-10-09T06:27:13.629Z,22.48
2018-10-09T06:29:41.115Z,25.25
2018-10-09T06:32:08.616Z,23.20
2018-10-09T06:34:36.097Z,24.63
2018-10-09T06:37:03.619Z,30.77
2018-10-09T06:39:31.051Z,29.55
2018-10-09T06:41:58.523Z,24.00
2018-10-09T06:44:26.024Z,25.32
2018-10-09T06:46:53.604Z,23.90
2018-10-09T06:49:21.085Z,20.85
2018-10-09T06:51:48.586Z,23.67
2018-10-09T06:54:16.109Z,23.90
2018-10-09T06:56:43.603Z,19.73
2018-10-09T06:59:11.083Z,17.30
2018-10-09T07:01:38.590Z,17.43
2018-10-09T07:04:06.226Z,16.03
2018-10-09T07:06:33.723Z,14.97
2018-10-09T07:09:01.296Z,12.63
2018-10-09T07:11:29.150Z,13.13
2018-10-09T07:13:56.652Z,13.00
2018-10-09T07:16:24.191Z,14.47
2018-10-09T07:18:51.769Z,14.10
2018-10-09T07:21:19.299Z,17.17
2018-10-09T07:23:46.777Z,13.17
2018-10-09T07:26:14.353Z,13.37
2018-10-09T07:28:41.885Z,12.27
2018-10-09T07:31:09.424Z,11.33
2018-10-09T07:33:36.944Z,12.03
2018-10-09T07:36:04.446Z,12.60
2018-10-09T07:38:31.930Z,14.03
2018-10-09T07:40:59.455Z,12.33
2018-10-09T07:43:26.956Z,13.07
2018-10-09T07:45:54.552Z,13.27
2018-10-09T07:48:22.162Z,12.43
2018-10-09T07:50:49.729Z,13.10
2018-10-09T07:53:17.220Z,13.07
2018-10-09T07:55:44.767Z,11.90
2018-10-09T07:58:12.287Z,12.00
2018-10-09T08:00:39.816Z,14.93
2018-10-09T08:03:08.030Z,12.70
2018-10-09T08:05:35.548Z,12.37
2018-10-09T08:08:03.056Z,13.17
2018-10-09T08:10:30.674Z,13.17
2018-10-09T08:12:58.918Z,13.30
2018-10-09T08:15:26.432Z,14.20
2018-10-09T08:17:54.050Z,12.47
2018-10-09T08:20:21.608Z,13.53
2018-10-09T08:22:49.142Z,13.50
2018-10-09T08:25:16.769Z,13.13
2018-10-09T08:27:44.316Z,13.77
2018-10-09T08:30:11.843Z,13.60
2018-10-09T08:32:39.368Z,13.90
2018-10-09T08:35:06.990Z,14.47
2018-10-09T08:37:34.507Z,13.13
2018-10-09T08:40:02.065Z,12.10
2018-10-09T08:42:29.602Z,13.07
2018-10-09T08:44:57.190Z,12.00
2018-10-09T08:47:24.768Z,11.93
2018-10-09T08:49:52.350Z,11.63
2018-10-09T08:52:20.025Z,11.80
2018-10-09T08:54:47.622Z,10.73
2018-10-09T08:57:15.148Z,11.70
2018-10-09T08:59:42.624Z,10.50
2018-10-09T09:02:10.134Z,26.90
2018-10-09T09:04:37.707Z,11.60
2018-10-09T09:07:05.344Z,11.43
2018-10-09T09:09:32.933Z,12.20
2018-10-09T09:12:00.434Z,12.13
2018-10-09T09:14:27.983Z,11.20
2018-10-09T09:16:55.498Z,11.37
2018-10-09T09:19:23.040Z,11.73
2018-10-09T09:21:50.566Z,12.47
2018-10-09T09:24:18.125Z,11.93
2018-10-09T09:26:45.898Z,11.03
2018-10-09T09:29:13.280Z,10.77
2018-10-09T09:31:40.781Z,14.17
2018-10-09T09:34:08.299Z,12.20
2018-10-09T09:36:35.864Z,11.47
2018-10-09T09:39:03.944Z,12.40
2018-10-09T09:41:31.496Z,12.00
2018-10-09T09:43:58.999Z,11.70
2018-10-09T09:46:26.631Z,11.90
2018-10-09T09:48:54.194Z,10.20
2018-10-09T09:51:21.764Z,10.80
2018-10-09T09:53:49.335Z,10.07
2018-10-09T09:56:16.906Z,10.17
2018-10-09T09:58:44.534Z,11.37
2018-10-09T10:01:12.005Z,11.70
2018-10-09T10:03:40.680Z,10.93
2018-10-09T10:06:08.657Z,10.73
2018-10-09T10:08:36.528Z,10.87
2018-10-09T10:11:04.069Z,11.30
2018-10-09T10:13:31.722Z,9.43
2018-10-09T10:15:59.288Z,10.13
2018-10-09T10:18:27.259Z,8.70
2018-10-09T10:20:55.595Z,9.03
2018-10-09T10:23:23.168Z,9.10
2018-10-09T10:25:50.865Z,9.43
2018-10-09T10:28:18.485Z,7.43
2018-10-09T10:30:46.269Z,7.90
2018-10-09T10:33:14.003Z,7.33
2018-10-09T10:35:41.569Z,9.07
2018-10-09T10:38:09.105Z,10.30
2018-10-09T10:40:36.722Z,10.00
2018-10-09T10:43:04.399Z,9.40
2018-10-09T10:45:31.986Z,8.00
2018-10-09T10:47:59.546Z,9.43
2018-10-09T10:50:27.135Z,9.60
2018-10-09T10:52:54.619Z,9.20
2018-10-09T10:55:22.124Z,9.70
2018-10-09T10:57:49.757Z,8.03
2018-10-09T11:00:17.425Z,8.40
2018-10-09T11:02:45.033Z,8.63
2018-10-09T11:05:12.647Z,9.20
2018-10-09T11:07:40.189Z,9.43
2018-10-09T11:10:08.279Z,9.10
2018-10-09T11:12:35.809Z,9.23
2018-10-09T11:15:03.437Z,8.40
2018-10-09T11:17:30.975Z,9.03
2018-10-09T11:19:58.622Z,8.37
2018-10-09T11:22:26.143Z,9.07
2018-10-09T11:24:53.786Z,7.60
2018-10-09T11:27:21.302Z,10.20
2018-10-09T11:29:48.802Z,7.97
2018-10-09T11:32:16.316Z,7.37
2018-10-09T11:34:43.792Z,7.67
2018-10-09T11:37:11.385Z,8.00
2018-10-09T11:39:38.929Z,8.50
2018-10-09T11:42:06.514Z,7.30
2018-10-09T11:44:34.094Z,8.23
2018-10-09T11:47:01.638Z,8.30
2018-10-09T11:49:29.213Z,8.03
2018-10-09T11:51:56.786Z,7.77
2018-10-09T11:54:24.344Z,7.00
2018-10-09T11:56:51.913Z,8.30
2018-10-09T11:59:19.497Z,6.63
2018-10-09T12:01:47.017Z,7.47
2018-10-09T12:04:14.522Z,7.10
2018-10-09T12:06:42.029Z,7.00
2018-10-09T12:09:10.962Z,6.50
2018-10-09T12:11:39.073Z,6.30
2018-10-09T12:14:06.556Z,7.23
2018-10-09T12:16:34.148Z,7.33
2018-10-09T12:19:01.698Z,7.00
2018-10-09T12:21:29.216Z,6.17
2018-10-09T12:23:56.881Z,7.20
2018-10-09T12:26:24.470Z,6.70
2018-10-09T12:28:52.021Z,7.10
2018-10-09T12:31:19.741Z,6.77
2018-10-09T12:33:47.388Z,6.03
2018-10-09T12:36:14.983Z,6.43
2018-10-09T12:38:42.516Z,6.93
2018-10-09T12:41:10.095Z,5.67
2018-10-09T12:43:37.665Z,6.03
2018-10-09T12:46:05.219Z,7.77
2018-10-09T12:48:32.864Z,6.83
2018-10-09T12:51:00.456Z,6.67
2018-10-09T12:53:28.137Z,8.33
2018-10-09T12:55:55.715Z,6.70
2018-10-09T12:58:23.341Z,6.90
2018-10-09T13:00:50.891Z,6.47
2018-10-09T13:03:18.500Z,8.17
2018-10-09T13:05:46.105Z,6.90
2018-10-09T13:08:13.695Z,7.60
2018-10-09T13:10:41.253Z,7.27
2018-10-09T13:13:08.840Z,7.20
2018-10-09T13:15:36.411Z,7.33
2018-10-09T13:18:04.030Z,7.00
2018-10-09T13:20:31.593Z,7.47
2018-10-09T13:22:59.351Z,7.10
2018-10-09T13:25:26.788Z,6.80
2018-10-09T13:27:54.343Z,7.50
2018-10-09T13:30:21.865Z,7.50
2018-10-09T13:32:49.411Z,10.23
2018-10-09T13:35:16.947Z,7.03
2018-10-09T13:37:44.483Z,6.30
2018-10-09T13:40:12.083Z,6.83
2018-10-09T13:42:39.572Z,7.10
2018-10-09T13:45:07.341Z,7.80
2018-10-09T13:47:34.879Z,8.83
2018-10-09T13:50:02.420Z,7.07
2018-10-09T13:52:29.936Z,9.40
2018-10-09T13:54:57.464Z,8.93
2018-10-09T13:57:24.960Z,8.40
2018-10-09T13:59:52.439Z,8.53
2018-10-09T14:02:19.960Z,6.90
2018-10-09T14:04:48.276Z,8.30
2018-10-09T14:07:15.797Z,8.50
2018-10-09T14:09:43.368Z,7.50
2018-10-09T14:12:11.066Z,10.77
2018-10-09T14:14:38.584Z,7.90
2018-10-09T14:17:06.178Z,10.13
2018-10-09T14:19:33.763Z,10.97
2018-10-09T14:22:01.254Z,9.07
2018-10-09T14:24:28.800Z,9.07
2018-10-09T14:26:56.288Z,8.90
2018-10-09T14:29:23.792Z,10.40
2018-10-09T14:31:51.310Z,8.10
2018-10-09T14:34:18.849Z,10.67
2018-10-09T14:36:46.317Z,8.67
2018-10-09T14:39:13.904Z,8.87
2018-10-09T14:41:41.424Z,15.83
2018-10-09T14:44:09.011Z,8.47
2018-10-09T14:46:36.549Z,9.03
2018-10-09T14:49:04.132Z,9.20
2018-10-09T14:51:31.625Z,10.07
2018-10-09T14:53:59.153Z,8.73
2018-10-09T14:56:26.614Z,10.93
2018-10-09T14:58:54.099Z,8.87
2018-10-09T15:01:21.636Z,8.70
2018-10-09T15:03:49.145Z,9.53
2018-10-09T15:06:16.667Z,8.67
2018-10-09T15:08:44.134Z,11.40
2018-10-09T15:11:12.472Z,8.83
2018-10-09T15:13:39.966Z,8.97
2018-10-09T15:16:07.544Z,12.20
2018-10-09T15:18:35.069Z,8.40
2018-10-09T15:21:02.573Z,10.43
2018-10-09T15:23:30.061Z,9.50
2018-10-09T15:25:57.617Z,10.17
2018-10-09T15:28:25.112Z,8.10
2018-10-09T15:30:52.649Z,9.27
2018-10-09T15:33:20.136Z,9.33
2018-10-09T15:35:47.837Z,7.93
2018-10-09T15:38:15.334Z,8.60
2018-10-09T15:40:43.176Z,11.00
2018-10-09T15:43:10.727Z,17.60
2018-10-09T15:45:38.288Z,27.10
2018-10-09T15:48:05.904Z,25.37
2018-10-09T15:50:33.413Z,12.80
2018-10-09T15:53:00.935Z,14.80
2018-10-09T15:55:28.495Z,9.63
2018-10-09T15:57:56.093Z,9.40
2018-10-09T16:00:23.684Z,14.40
2018-10-09T16:02:51.235Z,16.17
2018-10-09T16:05:18.787Z,27.97
2018-10-09T16:07:46.255Z,16.40
2018-10-09T16:10:13.792Z,13.77
2018-10-09T16:12:41.306Z,25.00
2018-10-09T16:15:08.894Z,19.97
2018-10-09T16:17:36.466Z,19.57
2018-10-09T16:20:04.766Z,12.97
2018-10-09T16:22:32.306Z,32.73
2018-10-09T16:24:59.840Z,19.40
2018-10-09T16:27:27.360Z,10.90
2018-10-09T16:29:54.822Z,21.07
2018-10-09T16:32:22.362Z,15.53
2018-10-09T16:34:49.885Z,14.57
2018-10-09T16:37:17.382Z,18.87
2018-10-09T16:39:44.918Z,16.00
2018-10-09T16:42:12.426Z,13.80
2018-10-09T16:44:39.979Z,13.70
2018-10-09T16:47:07.543Z,12.93
2018-10-09T16:49:36.837Z,13.00
2018-10-09T16:52:04.378Z,12.17
2018-10-09T16:54:31.893Z,12.50
2018-10-09T16:56:59.418Z,14.47
2018-10-09T16:59:26.998Z,15.40
2018-10-09T17:01:54.510Z,15.13
2018-10-09T17:04:22.072Z,13.57
2018-10-09T17:06:49.680Z,19.03
2018-10-09T17:09:17.122Z,17.93
2018-10-09T17:11:45.575Z,14.17
2018-10-09T17:14:13.132Z,16.53
2018-10-09T17:16:40.805Z,14.47
2018-10-09T17:19:08.445Z,13.17
2018-10-09T17:21:36.014Z,15.80
2018-10-09T17:24:03.612Z,13.25
2018-10-09T17:26:31.265Z,14.05
2018-10-09T17:28:58.791Z,15.55
2018-10-09T17:31:26.488Z,13.67
2018-10-09T17:33:54.230Z,13.03
2018-10-09T17:36:21.824Z,13.00
2018-10-09T17:38:49.588Z,16.73
2018-10-09T17:41:17.460Z,15.30
2018-10-09T17:43:44.992Z,14.80
2018-10-09T17:46:12.510Z,13.38
2018-10-09T17:48:40.013Z,13.48
2018-10-09T17:51:07.575Z,14.80
2018-10-09T17:53:35.241Z,14.95
2018-10-09T17:56:02.966Z,13.98
2018-10-09T17:58:30.568Z,14.90
2018-10-09T18:00:58.080Z,18.12
2018-10-09T18:03:25.764Z,16.57
2018-10-09T18:05:53.326Z,19.23
2018-10-09T18:08:20.877Z,20.15
2018-10-09T18:10:48.430Z,17.40
2018-10-09T18:13:16.573Z,18.77
2018-10-09T18:15:44.414Z,20.20
2018-10-09T18:18:11.976Z,25.57
2018-10-09T18:20:39.618Z,26.68
2018-10-09T18:23:07.139Z,29.15
2018-10-09T18:25:34.947Z,21.97
2018-10-09T18:28:02.574Z,21.57
2018-10-09T18:30:30.213Z,18.65
2018-10-09T18:32:57.987Z,17.30
2018-10-09T18:35:26.756Z,17.77
2018-10-09T18:37:54.805Z,16.37
2018-10-09T18:40:22.519Z,18.25
2018-10-09T18:42:51.899Z,18.30
2018-10-09T18:45:19.854Z,19.75
2018-10-09T18:47:47.803Z,20.95
2018-10-09T18:50:15.666Z,20.88
2018-10-09T18:52:43.366Z,18.25
2018-10-09T18:55:13.702Z,16.52
2018-10-09T18:57:42.002Z,21.27
2018-10-09T19:00:10.552Z,19.20
2018-10-09T19:02:38.762Z,19.15
2018-10-09T19:05:06.900Z,20.25
2018-10-09T19:07:34.578Z,20.40
2018-10-09T19:10:02.442Z,22.42
2018-10-09T19:12:30.003Z,25.02
2018-10-09T19:14:57.570Z,24.75
2018-10-09T19:17:25.353Z,25.17
2018-10-09T19:19:52.915Z,25.05
2018-10-09T19:22:20.653Z,23.18
2018-10-09T19:24:48.567Z,24.47
2018-10-09T19:30:08.920Z,24.82
2018-10-09T19:32:36.526Z,29.48
2018-10-09T19:35:04.040Z,27.37
2018-10-09T19:37:31.608Z,27.40
2018-10-09T19:39:59.175Z,26.40
2018-10-09T19:42:26.747Z,28.05
2018-10-09T19:44:54.407Z,29.67
2018-10-09T19:47:21.917Z,31.35
2018-10-09T19:49:49.518Z,31.05
2018-10-09T19:52:17.035Z,34.08
2018-10-09T19:54:44.602Z,34.40
2018-10-09T19:57:12.129Z,30.95
2018-10-09T19:59:39.742Z,29.50
2018-10-09T20:02:07.307Z,30.70
2018-10-09T20:04:34.946Z,28.45
2018-10-09T20:07:02.516Z,30.32
2018-10-09T20:09:30.140Z,25.32
2018-10-09T20:11:57.714Z,30.75
2018-10-09T20:14:25.328Z,26.93
2018-10-09T20:16:52.898Z,27.67
2018-10-09T20:19:20.439Z,29.55
2018-10-09T20:21:48.048Z,28.23
2018-10-09T20:24:15.657Z,31.75
2018-10-09T20:26:43.219Z,30.15
2018-10-09T20:29:11.120Z,28.73
2018-10-09T20:31:38.771Z,30.12
2018-10-09T20:34:06.646Z,27.93
2018-10-09T20:36:34.246Z,33.88
2018-10-09T20:39:01.830Z,31.55
2018-10-09T20:41:29.396Z,33.45
2018-10-09T20:43:57.038Z,31.60
2018-10-09T20:46:25.147Z,26.23
2018-10-09T20:48:52.765Z,32.85
2018-10-09T20:51:20.329Z,28.17
2018-10-09T20:53:47.798Z,29.23
2018-10-09T20:56:15.323Z,27.55
2018-10-09T20:58:42.872Z,33.58
2018-10-09T21:01:10.462Z,31.62
2018-10-09T21:03:37.958Z,29.82
2018-10-09T21:06:05.542Z,32.95
2018-10-09T21:08:43.343Z,29.40
2018-10-09T21:11:10.990Z,35.10
2018-10-09T21:13:38.630Z,31.62
2018-10-09T21:16:06.253Z,33.70
2018-10-09T21:18:33.898Z,33.00
2018-10-09T21:21:01.517Z,30.00
2018-10-09T21:23:29.100Z,34.95
2018-10-09T21:25:56.750Z,37.78
2018-10-09T21:28:24.232Z,32.48
2018-10-09T21:30:51.761Z,31.20
2018-10-09T21:33:19.221Z,32.65
2018-10-09T21:35:46.763Z,33.05
2018-10-09T21:38:14.399Z,31.97
2018-10-09T21:40:41.957Z,38.45
2018-10-09T21:43:09.547Z,33.38
2018-10-09T21:45:37.099Z,34.75
2018-10-09T21:48:04.810Z,37.35
2018-10-09T21:50:32.299Z,35.63
2018-10-09T21:53:00.107Z,37.83
2018-10-09T21:55:28.070Z,33.80
2018-10-09T21:57:56.356Z,33.18
2018-10-09T22:00:23.990Z,37.25
2018-10-09T22:02:51.474Z,32.38
2018-10-09T22:05:18.993Z,37.30
2018-10-09T22:07:46.526Z,36.55
2018-10-09T22:10:14.000Z,38.65
2018-10-09T22:12:41.515Z,34.53
2018-10-09T22:15:09.051Z,37.42
2018-10-09T22:17:36.527Z,41.18
2018-10-09T22:20:04.086Z,39.92
2018-10-09T22:22:31.570Z,39.67
2018-10-09T22:24:59.055Z,37.98
2018-10-09T22:27:26.549Z,40.00
2018-10-09T22:29:54.418Z,38.33
2018-10-09T22:32:21.904Z,39.45
2018-10-09T22:34:49.877Z,45.05
2018-10-09T22:37:17.730Z,38.30
2018-10-09T22:39:45.246Z,47.08
2018-10-09T22:42:12.750Z,36.60
2018-10-09T22:44:40.226Z,35.85
2018-10-09T22:47:07.689Z,38.33
2018-10-09T22:49:35.192Z,42.60
2018-10-09T22:52:02.750Z,40.88
2018-10-09T22:54:30.229Z,35.45
2018-10-09T22:56:57.805Z,45.17
2018-10-09T22:59:25.926Z,42.25
2018-10-09T23:01:53.426Z,43.90
2018-10-09T23:04:20.959Z,40.90
2018-10-09T23:06:48.476Z,41.40
2018-10-09T23:09:15.920Z,38.98
2018-10-09T23:11:43.407Z,39.53
2018-10-09T23:14:10.906Z,43.00
2018-10-09T23:16:38.374Z,43.63
2018-10-09T23:19:05.911Z,40.10
2018-10-09T23:21:33.398Z,40.25
2018-10-09T23:24:00.936Z,37.17
2018-10-09T23:26:28.418Z,46.75
2018-10-09T23:28:55.908Z,48.17
2018-10-09T23:31:23.404Z,44.05
2018-10-09T23:33:50.964Z,42.95
2018-10-09T23:36:18.443Z,50.08
2018-10-09T23:38:45.948Z,47.67
2018-10-09T23:41:13.480Z,53.48
2018-10-09T23:43:40.970Z,49.35
2018-10-09T23:46:08.632Z,45.65
2018-10-09T23:48:36.163Z,45.98
2018-10-09T23:51:03.667Z,43.78
2018-10-09T23:53:31.196Z,44.88
2018-10-09T23:55:58.673Z,50.30
2018-10-09T23:58:26.185Z,45.15
